createdAt,value
2018-08-04T00:02:07.838Z,7.67
2018-08-04T00:04:37.332Z,7.17
2018-08-04T00:07:07.348Z,7.60
2018-08-04T00:09:36.545Z,8.73
2018-08-04T00:17:21.913Z,8.13
2018-08-04T03:13:06.753Z,9.13
2018-08-04T03:15:36.322Z,8.67
2018-08-04T03:18:07.342Z,8.47
2018-08-04T03:20:38.145Z,9.33
2018-08-04T03:23:07.693Z,8.33
2018-08-04T03:25:37.703Z,8.57
2018-08-04T03:28:07.079Z,9.30
2018-08-04T03:30:36.672Z,8.07
2018-08-04T03:33:06.503Z,8.80
2018-08-04T03:35:37.374Z,8.97
2018-08-04T03:38:07.284Z,8.77
2018-08-04T03:40:36.669Z,9.70
2018-08-04T03:43:05.907Z,9.47
2018-08-04T03:45:34.981Z,9.78
2018-08-04T03:48:04.122Z,9.40
2018-08-04T03:50:34.402Z,11.03
2018-08-04T03:53:03.760Z,8.50
2018-08-04T03:55:32.466Z,8.93
2018-08-04T03:58:01.204Z,10.20
2018-08-04T04:00:31.569Z,8.90
2018-08-04T04:03:00.343Z,8.60
2018-08-04T04:05:29.051Z,9.23
2018-08-04T04:07:58.334Z,8.33
2018-08-04T04:10:27.527Z,10.10
2018-08-04T04:12:56.315Z,10.87
2018-08-04T04:15:25.002Z,10.60
2018-08-04T04:17:54.607Z,9.47
2018-08-04T04:20:23.296Z,9.63
2018-08-04T04:22:52.850Z,9.70
2018-08-04T04:25:22.056Z,10.47
2018-08-04T04:27:51.280Z,10.77
2018-08-04T04:30:20.806Z,12.33
2018-08-04T04:32:49.581Z,11.33
2018-08-04T04:35:18.684Z,10.77
2018-08-04T04:37:48.095Z,9.70
2018-08-04T04:40:17.486Z,10.17
2018-08-04T04:42:46.789Z,10.00
2018-08-04T04:45:15.677Z,10.50
2018-08-04T04:47:44.445Z,10.97
2018-08-04T04:50:13.774Z,10.33
2018-08-04T04:52:42.962Z,10.37
2018-08-04T04:55:11.653Z,10.37
2018-08-04T04:57:40.319Z,13.57
2018-08-04T05:00:09.064Z,11.00
2018-08-04T05:02:38.188Z,10.70
2018-08-04T05:05:08.621Z,11.00
2018-08-04T05:07:37.366Z,11.40
2018-08-04T05:10:07.270Z,13.77
2018-08-04T05:12:39.117Z,11.87
2018-08-04T05:15:08.494Z,12.07
2018-08-04T05:17:37.179Z,10.90
2018-08-04T05:20:06.873Z,10.50
2018-08-04T05:22:37.322Z,10.57
2018-08-04T05:25:07.196Z,10.53
2018-08-04T05:27:37.138Z,10.83
2018-08-04T05:30:06.946Z,11.60
2018-08-04T05:32:36.731Z,9.03
2018-08-04T05:35:05.461Z,12.20
2018-08-04T05:37:34.324Z,8.90
2018-08-04T05:40:03.076Z,11.90
2018-08-04T05:42:31.705Z,10.72
2018-08-04T05:45:00.497Z,10.55
2018-08-04T05:47:30.300Z,10.45
2018-08-04T05:49:58.988Z,9.83
2018-08-04T05:52:27.637Z,9.03
2018-08-04T05:54:56.645Z,10.20
2018-08-04T05:57:25.997Z,10.17
2018-08-04T05:59:55.029Z,8.70
2018-08-04T06:02:24.151Z,8.33
2018-08-04T06:04:53.705Z,8.47
2018-08-04T06:07:22.407Z,8.57
2018-08-04T06:09:52.208Z,8.87
2018-08-04T06:12:23.306Z,8.27
2018-08-04T06:14:52.072Z,8.60
2018-08-04T06:17:21.857Z,9.60
2018-08-04T06:19:50.585Z,9.57
2018-08-04T06:22:20.080Z,8.40
2018-08-04T06:24:49.322Z,8.47
2018-08-04T06:27:18.084Z,7.77
2018-08-04T06:29:46.699Z,8.40
2018-08-04T06:32:15.328Z,9.00
2018-08-04T06:34:44.040Z,10.90
2018-08-04T06:37:13.543Z,9.97
2018-08-04T06:39:43.628Z,11.07
2018-08-04T06:42:13.444Z,9.67
2018-08-04T06:44:42.132Z,9.40
2018-08-04T06:47:10.740Z,10.53
2018-08-04T06:49:39.985Z,11.37
2018-08-04T06:52:08.873Z,12.40
2018-08-04T06:54:37.601Z,13.93
2018-08-04T06:57:06.249Z,12.57
2018-08-04T06:59:34.877Z,12.40
2018-08-04T07:02:03.496Z,11.13
2018-08-04T07:04:34.245Z,11.10
2018-08-04T07:07:03.242Z,11.70
2018-08-04T07:09:33.255Z,11.40
2018-08-04T07:12:02.042Z,11.77
2018-08-04T07:14:32.147Z,12.20
2018-08-04T07:17:00.778Z,9.10
2018-08-04T07:19:29.483Z,9.70
2018-08-04T07:21:58.089Z,8.43
2018-08-04T07:24:26.717Z,8.53
2018-08-04T07:26:56.827Z,7.60
2018-08-04T07:29:25.535Z,7.00
2018-08-04T07:31:54.257Z,7.10
2018-08-04T07:34:23.175Z,6.90
2018-08-04T07:36:52.961Z,6.93
2018-08-04T07:39:21.609Z,9.13
2018-08-04T07:41:50.236Z,7.93
2018-08-04T07:44:19.424Z,8.13
2018-08-04T07:46:48.593Z,7.77
2018-08-04T07:49:18.219Z,6.40
2018-08-04T07:51:47.049Z,6.40
2018-08-04T07:54:15.697Z,7.30
2018-08-04T07:56:44.229Z,7.22
2018-08-04T07:59:12.885Z,15.32
2018-08-04T08:01:41.466Z,6.30
2018-08-04T08:04:10.203Z,6.70
2018-08-04T08:06:38.919Z,6.85
2018-08-04T08:09:09.252Z,6.50
2018-08-04T08:11:38.476Z,8.38
2018-08-04T08:14:07.843Z,10.85
2018-08-04T08:16:38.025Z,7.30
2018-08-04T08:19:08.677Z,7.28
2018-08-04T08:21:37.952Z,6.92
2018-08-04T08:24:07.818Z,6.67
2018-08-04T08:26:36.924Z,7.33
2018-08-04T08:29:06.495Z,8.75
2018-08-04T08:31:36.624Z,7.80
2018-08-04T08:35:13.658Z,7.40
2018-08-04T08:37:43.410Z,7.75
2018-08-04T08:40:13.126Z,7.80
2018-08-04T08:42:43.540Z,8.58
2018-08-04T08:45:13.321Z,8.30
2018-08-04T08:47:45.398Z,8.40
2018-08-04T08:50:16.364Z,7.00
2018-08-04T08:52:46.056Z,7.97
2018-08-04T08:55:16.570Z,8.03
2018-08-04T08:57:45.215Z,9.80
2018-08-04T09:00:14.846Z,10.00
2018-08-04T09:03:40.371Z,10.15
2018-08-04T09:06:10.368Z,8.78
2018-08-04T09:08:40.984Z,8.73
2018-08-04T09:11:12.712Z,7.87
2018-08-04T09:13:44.067Z,8.23
2018-08-04T09:16:12.975Z,7.65
2018-08-04T09:18:42.990Z,8.08
2018-08-04T09:21:12.909Z,7.42
2018-08-04T09:23:41.796Z,7.40
2018-08-04T09:26:11.610Z,7.47
2018-08-04T09:28:40.452Z,7.10
2018-08-04T09:31:10.393Z,6.30
2018-08-04T09:33:43.954Z,8.00
2018-08-04T09:36:13.069Z,14.90
2018-08-04T09:38:43.409Z,6.72
2018-08-04T09:41:12.177Z,9.73
2018-08-04T09:43:40.982Z,7.78
2018-08-04T09:46:09.771Z,6.75
2018-08-04T09:48:39.941Z,7.30
2018-08-04T09:51:08.864Z,6.30
2018-08-04T09:53:38.822Z,11.83
2018-08-04T09:56:09.371Z,6.45
2018-08-04T09:58:39.926Z,7.50
2018-08-04T10:01:14.303Z,6.12
2018-08-04T10:03:43.319Z,6.85
2018-08-04T10:06:14.148Z,6.45
2018-08-04T10:08:44.161Z,7.60
2018-08-04T10:11:13.244Z,6.00
2018-08-04T10:13:42.831Z,6.00
2018-08-04T10:16:13.329Z,5.53
2018-08-04T10:18:52.953Z,5.75
2018-08-04T10:21:21.659Z,5.95
2018-08-04T10:23:50.862Z,6.37
2018-08-04T10:26:19.698Z,6.95
2018-08-04T10:28:49.416Z,5.65
2018-08-04T10:31:18.126Z,5.87
2018-08-04T10:33:48.084Z,5.20
2018-08-04T10:36:18.354Z,5.58
2018-08-04T10:38:47.883Z,6.00
2018-08-04T10:41:16.568Z,7.53
2018-08-04T10:43:45.249Z,5.55
2018-08-04T10:46:14.389Z,5.97
2018-08-04T10:48:44.170Z,6.20
2018-08-04T10:51:14.054Z,6.05
2018-08-04T10:53:43.669Z,6.97
2018-08-04T10:56:13.383Z,5.55
2018-08-04T10:58:41.857Z,6.50
2018-08-04T11:01:10.440Z,8.35
2018-08-04T11:03:39.986Z,6.58
2018-08-04T11:06:10.568Z,5.97
2018-08-04T11:08:40.365Z,8.40
2018-08-04T11:11:09.991Z,6.08
2018-08-04T11:13:40.115Z,6.25
2018-08-04T11:16:09.164Z,5.87
2018-08-04T11:18:39.957Z,6.05
2018-08-04T11:21:09.756Z,6.53
2018-08-04T11:23:39.037Z,5.45
2018-08-04T11:26:08.748Z,7.85
2018-08-04T11:28:38.930Z,5.90
2018-08-04T11:31:08.211Z,6.87
2018-08-04T11:33:36.976Z,5.55
2018-08-04T11:36:06.073Z,5.37
2018-08-04T11:38:36.618Z,5.58
2018-08-04T11:41:06.092Z,6.35
2018-08-04T11:43:37.788Z,6.00
2018-08-04T11:46:06.639Z,5.45
2018-08-04T11:48:35.773Z,6.28
2018-08-04T11:51:04.815Z,5.45
2018-08-04T11:53:34.739Z,5.80
2018-08-04T11:56:03.374Z,7.37
2018-08-04T11:58:32.698Z,6.12
2018-08-04T12:01:02.242Z,6.72
2018-08-04T12:03:31.591Z,6.20
2018-08-04T12:06:01.605Z,5.87
2018-08-04T12:08:31.771Z,6.72
2018-08-04T12:11:03.520Z,6.25
2018-08-04T12:13:33.478Z,6.45
2018-08-04T12:16:03.397Z,6.22
2018-08-04T12:18:32.323Z,5.78
2018-08-04T12:21:03.137Z,8.35
2018-08-04T12:23:33.610Z,6.05
2018-08-04T12:26:03.416Z,5.53
2018-08-04T12:28:34.030Z,7.53
2018-08-04T12:31:03.247Z,7.03
2018-08-04T12:33:33.383Z,5.70
2018-08-04T12:36:02.629Z,7.22
2018-08-04T12:38:33.428Z,6.20
2018-08-04T12:41:03.682Z,5.75
2018-08-04T12:43:32.231Z,5.78
2018-08-04T12:46:03.312Z,6.12
2018-08-04T12:48:32.148Z,6.12
2018-08-04T12:51:02.133Z,5.40
2018-08-04T12:53:32.115Z,6.92
2018-08-04T12:56:01.949Z,7.33
2018-08-04T12:58:30.693Z,6.00
2018-08-04T13:01:01.667Z,5.55
2018-08-04T13:03:33.004Z,5.97
2018-08-04T13:06:02.854Z,6.70
2018-08-04T13:08:33.912Z,5.67
2018-08-04T13:11:02.539Z,5.78
2018-08-04T13:13:31.869Z,6.62
2018-08-04T13:16:02.559Z,6.65
2018-08-04T13:18:31.335Z,5.75
2018-08-04T13:21:01.595Z,5.90
2018-08-04T13:23:30.382Z,5.53
2018-08-04T13:25:59.621Z,5.28
2018-08-04T13:28:28.339Z,5.58
2018-08-04T13:30:58.205Z,6.92
2018-08-04T13:33:27.720Z,6.78
2018-08-04T13:35:58.392Z,6.00
2018-08-04T13:38:27.702Z,5.42
2018-08-04T13:40:56.276Z,5.65
2018-08-04T13:43:24.986Z,5.50
2018-08-04T13:45:55.356Z,6.10
2018-08-04T13:48:25.028Z,5.78
2018-08-04T13:50:54.685Z,5.72
2018-08-04T13:53:27.222Z,5.22
2018-08-04T13:55:58.481Z,5.45
2018-08-04T13:58:33.980Z,5.22
2018-08-04T14:01:03.591Z,6.78
2018-08-04T14:03:34.551Z,5.83
2018-08-04T14:06:03.599Z,5.65
2018-08-04T14:09:06.032Z,5.12
2018-08-04T14:11:36.157Z,7.33
2018-08-04T14:14:06.763Z,6.53
2018-08-04T14:16:36.233Z,6.00
2018-08-04T14:19:06.999Z,5.90
2018-08-04T14:21:36.957Z,8.28
2018-08-04T14:24:07.340Z,5.92
2018-08-04T14:26:37.151Z,7.65
2018-08-04T14:29:07.977Z,6.05
2018-08-04T14:31:37.779Z,6.42
2018-08-04T14:34:10.207Z,7.97
2018-08-04T14:36:44.080Z,7.00
2018-08-04T14:39:14.673Z,5.70
2018-08-04T14:41:43.816Z,6.50
2018-08-04T14:44:12.721Z,5.90
2018-08-04T14:46:44.172Z,6.50
2018-08-04T14:49:14.149Z,7.47
2018-08-04T14:51:43.625Z,6.12
2018-08-04T14:54:14.756Z,6.12
2018-08-04T14:56:49.027Z,5.60
2018-08-04T14:59:32.143Z,6.60
2018-08-04T15:02:07.814Z,5.08
2018-08-04T15:04:39.607Z,11.65
2018-08-04T15:07:10.690Z,7.58
2018-08-04T15:12:16.892Z,5.75
2018-08-04T15:14:49.564Z,5.83
2018-08-04T15:17:28.585Z,5.92
2018-08-04T15:20:07.261Z,5.95
2018-08-04T15:22:39.023Z,5.50
2018-08-04T15:25:10.393Z,5.35
2018-08-04T15:27:47.689Z,6.42
2018-08-04T15:30:19.243Z,6.67
2018-08-04T15:32:51.785Z,7.17
2018-08-04T15:35:27.581Z,8.40
2018-08-04T15:37:59.434Z,5.97
2018-08-04T15:40:30.177Z,6.08
2018-08-04T15:42:59.371Z,5.90
2018-08-04T15:45:30.496Z,7.20
2018-08-04T15:48:05.962Z,6.05
2018-08-04T15:50:37.710Z,7.08
2018-08-04T15:53:12.412Z,6.95
2018-08-04T15:55:48.058Z,7.15
2018-08-04T15:58:26.562Z,6.12
2018-08-04T16:00:56.705Z,8.95
2018-08-04T16:03:26.655Z,6.80
2018-08-04T16:06:01.715Z,5.80
2018-08-04T16:08:46.226Z,6.03
2018-08-04T16:11:50.910Z,5.87
2018-08-04T16:14:23.057Z,6.97
2018-08-04T16:16:59.437Z,6.17
2018-08-04T16:19:46.210Z,6.17
2018-08-04T16:22:23.857Z,6.25
2018-08-04T16:24:59.818Z,7.03
2018-08-04T16:27:42.598Z,7.03
2018-08-04T16:30:12.510Z,6.05
2018-08-04T16:32:44.396Z,6.08
2018-08-04T16:35:19.968Z,5.80
2018-08-04T16:37:54.125Z,5.83
2018-08-04T16:40:23.969Z,7.33
2018-08-04T16:43:00.112Z,9.70
2018-08-04T16:45:34.390Z,5.70
2018-08-04T16:48:03.916Z,6.05
2018-08-04T16:50:33.727Z,5.67
2018-08-04T16:53:04.358Z,5.92
2018-08-04T16:55:37.856Z,7.37
2018-08-04T16:58:07.371Z,6.03
2018-08-04T17:00:36.150Z,7.10
2018-08-04T17:03:08.216Z,6.70
2018-08-04T17:05:56.562Z,5.80
2018-08-04T17:18:03.318Z,5.78
2018-08-04T18:54:15.876Z,7.73
2018-08-04T18:56:48.324Z,4.03
2018-08-04T18:59:26.115Z,5.30
2018-08-04T19:02:02.672Z,5.17
2018-08-04T19:04:34.548Z,3.70
2018-08-04T19:07:20.091Z,5.03
2018-08-04T19:11:06.386Z,4.47
2018-08-04T19:16:27.515Z,3.60
2018-08-04T19:24:09.015Z,3.50
2018-08-04T19:26:59.666Z,3.50
2018-08-04T19:29:40.407Z,3.80
2018-08-04T19:35:36.278Z,3.70
2018-08-04T19:38:20.360Z,4.27
2018-08-04T19:50:53.577Z,3.13
2018-08-04T19:57:52.726Z,5.83
2018-08-04T20:00:53.777Z,5.33
2018-08-04T20:03:43.170Z,3.90
2018-08-04T20:22:14.108Z,3.63
2018-08-04T20:37:41.226Z,4.17
2018-08-04T20:40:11.645Z,4.63
2018-08-04T20:42:44.214Z,3.33
2018-08-04T20:45:34.866Z,2.30
2018-08-04T20:48:20.173Z,4.03
2018-08-04T20:50:51.747Z,3.47
2018-08-04T20:53:22.821Z,3.33
2018-08-04T20:55:53.238Z,2.13
2018-08-04T21:04:00.186Z,2.30
2018-08-04T21:07:03.992Z,2.67
2018-08-04T21:10:02.051Z,5.03
2018-08-04T21:12:33.672Z,2.50
2018-08-04T21:15:06.541Z,5.83
2018-08-04T21:17:38.988Z,4.57
2018-08-04T21:20:52.863Z,3.10
2018-08-04T21:33:41.520Z,2.47
2018-08-04T21:38:56.748Z,7.60
